sensor_id;sensor_type;location;lat;lon;timestamp;P1;durP1;ratioP1;P2;durP2;ratioP2
56752;SDS011;42627;42.646;23.642;2023-05-01T00:02:20;6.32;;;3.55;;
56752;SDS011;42627;42.646;23.642;2023-05-01T00:04:20;7.05;;;3.42;;
56752;SDS011;42627;42.646;23.642;2023-05-01T00:06:21;7.45;;;3.58;;
56752;SDS011;42627;42.646;23.642;2023-05-01T00:08:22;7.70;;;3.30;;
56752;SDS011;42627;42.646;23.642;2023-05-01T00:10:22;6.05;;;3.50;;
56752;SDS011;42627;42.646;23.642;2023-05-01T00:12:23;8.05;;;3.40;;
56752;SDS011;42627;42.646;23.642;2023-05-01T00:16:35;10.30;;;5.18;;
56752;SDS011;42627;42.646;23.642;2023-05-01T00:18:36;19.30;;;9.50;;
56752;SDS011;42627;42.646;23.642;2023-05-01T00:20:37;13.73;;;7.47;;
56752;SDS011;42627;42.646;23.642;2023-05-01T00:22:38;8.98;;;5.30;;
56752;SDS011;42627;42.646;23.642;2023-05-01T00:24:56;6.18;;;3.20;;
56752;SDS011;42627;42.646;23.642;2023-05-01T00:27:12;5.38;;;3.10;;
56752;SDS011;42627;42.646;23.642;2023-05-01T00:31:43;5.93;;;3.50;;
56752;SDS011;42627;42.646;23.642;2023-05-01T00:33:44;5.68;;;2.95;;
56752;SDS011;42627;42.646;23.642;2023-05-01T00:35:45;6.60;;;2.88;;
56752;SDS011;42627;42.646;23.642;2023-05-01T00:37:46;3.83;;;2.35;;
56752;SDS011;42627;42.646;23.642;2023-05-01T00:39:47;6.40;;;2.83;;
56752;SDS011;42627;42.646;23.642;2023-05-01T00:41:47;5.13;;;2.55;;
56752;SDS011;42627;42.646;23.642;2023-05-01T00:44:03;4.82;;;2.67;;
56752;SDS011;42627;42.646;23.642;2023-05-01T00:46:04;4.05;;;2.20;;
56752;SDS011;42627;42.646;23.642;2023-05-01T00:48:05;4.15;;;2.30;;
56752;SDS011;42627;42.646;23.642;2023-05-01T00:50:06;5.55;;;2.38;;
56752;SDS011;42627;42.646;23.642;2023-05-01T00:52:07;3.97;;;2.10;;
56752;SDS011;42627;42.646;23.642;2023-05-01T00:59:47;4.15;;;2.20;;
56752;SDS011;42627;42.646;23.642;2023-05-01T01:01:49;5.68;;;2.58;;
56752;SDS011;42627;42.646;23.642;2023-05-01T01:03:49;3.17;;;2.05;;
56752;SDS011;42627;42.646;23.642;2023-05-01T01:05:53;6.03;;;2.92;;
56752;SDS011;42627;42.646;23.642;2023-05-01T01:08:26;4.63;;;2.20;;
56752;SDS011;42627;42.646;23.642;2023-05-01T01:10:46;4.07;;;2.30;;
56752;SDS011;42627;42.646;23.642;2023-05-01T01:15:29;4.57;;;2.60;;
56752;SDS011;42627;42.646;23.642;2023-05-01T01:22:25;4.70;;;2.45;;
56752;SDS011;42627;42.646;23.642;2023-05-01T01:35:07;4.43;;;2.22;;
56752;SDS011;42627;42.646;23.642;2023-05-01T01:37:19;3.50;;;2.28;;
56752;SDS011;42627;42.646;23.642;2023-05-01T01:41:50;4.43;;;2.47;;
56752;SDS011;42627;42.646;23.642;2023-05-01T01:46:35;4.25;;;2.05;;
56752;SDS011;42627;42.646;23.642;2023-05-01T01:48:39;7.38;;;2.45;;
56752;SDS011;42627;42.646;23.642;2023-05-01T01:50:42;5.03;;;2.60;;
56752;SDS011;42627;42.646;23.642;2023-05-01T01:53:04;5.22;;;2.35;;
56752;SDS011;42627;42.646;23.642;2023-05-01T01:57:52;4.82;;;2.40;;
56752;SDS011;42627;42.646;23.642;2023-05-01T01:59:53;5.40;;;2.22;;
56752;SDS011;42627;42.646;23.642;2023-05-01T02:01:54;5.80;;;2.58;;
56752;SDS011;42627;42.646;23.642;2023-05-01T02:03:56;3.83;;;2.17;;
56752;SDS011;42627;42.646;23.642;2023-05-01T02:05:59;5.13;;;2.15;;
56752;SDS011;42627;42.646;23.642;2023-05-01T02:08:00;3.65;;;1.85;;
56752;SDS011;42627;42.646;23.642;2023-05-01T02:10:04;2.63;;;1.55;;
56752;SDS011;42627;42.646;23.642;2023-05-01T02:14:31;3.67;;;1.80;;
56752;SDS011;42627;42.646;23.642;2023-05-01T02:16:33;4.80;;;2.08;;
56752;SDS011;42627;42.646;23.642;2023-05-01T02:18:35;4.43;;;2.20;;
56752;SDS011;42627;42.646;23.642;2023-05-01T02:20:37;3.63;;;2.20;;
56752;SDS011;42627;42.646;23.642;2023-05-01T02:22:53;4.55;;;2.47;;
56752;SDS011;42627;42.646;23.642;2023-05-01T02:29:59;3.92;;;1.88;;
56752;SDS011;42627;42.646;23.642;2023-05-01T02:31:59;3.65;;;1.95;;
56752;SDS011;42627;42.646;23.642;2023-05-01T02:34:00;4.32;;;2.20;;
56752;SDS011;42627;42.646;23.642;2023-05-01T02:36:01;4.53;;;2.10;;
56752;SDS011;42627;42.646;23.642;2023-05-01T02:38:02;4.22;;;2.17;;
56752;SDS011;42627;42.646;23.642;2023-05-01T02:40:03;3.17;;;1.88;;
56752;SDS011;42627;42.646;23.642;2023-05-01T02:42:19;4.38;;;1.90;;
56752;SDS011;42627;42.646;23.642;2023-05-01T02:44:23;19.83;;;8.00;;
56752;SDS011;42627;42.646;23.642;2023-05-01T02:46:25;106.38;;;35.03;;
56752;SDS011;42627;42.646;23.642;2023-05-01T02:48:27;43.78;;;18.58;;
56752;SDS011;42627;42.646;23.642;2023-05-01T02:50:29;11.07;;;6.00;;
56752;SDS011;42627;42.646;23.642;2023-05-01T02:52:46;8.48;;;4.65;;
56752;SDS011;42627;42.646;23.642;2023-05-01T02:57:37;9.98;;;6.32;;
56752;SDS011;42627;42.646;23.642;2023-05-01T02:59:38;5.15;;;3.25;;
56752;SDS011;42627;42.646;23.642;2023-05-01T03:01:39;7.40;;;4.00;;
56752;SDS011;42627;42.646;23.642;2023-05-01T03:03:40;19.70;;;9.70;;
56752;SDS011;42627;42.646;23.642;2023-05-01T03:05:41;12.35;;;5.53;;
56752;SDS011;42627;42.646;23.642;2023-05-01T03:07:42;11.60;;;3.85;;
56752;SDS011;42627;42.646;23.642;2023-05-01T03:09:42;6.68;;;3.10;;
56752;SDS011;42627;42.646;23.642;2023-05-01T03:11:48;10.27;;;3.45;;
56752;SDS011;42627;42.646;23.642;2023-05-01T03:13:48;6.53;;;3.05;;
56752;SDS011;42627;42.646;23.642;2023-05-01T03:15:49;10.38;;;3.80;;
56752;SDS011;42627;42.646;23.642;2023-05-01T03:17:50;8.00;;;4.95;;
56752;SDS011;42627;42.646;23.642;2023-05-01T03:19:50;8.15;;;3.72;;
56752;SDS011;42627;42.646;23.642;2023-05-01T03:24:40;5.00;;;2.50;;
56752;SDS011;42627;42.646;23.642;2023-05-01T03:27:31;5.15;;;2.88;;
56752;SDS011;42627;42.646;23.642;2023-05-01T03:29:32;5.70;;;2.78;;
56752;SDS011;42627;42.646;23.642;2023-05-01T03:31:38;4.22;;;2.30;;
56752;SDS011;42627;42.646;23.642;2023-05-01T03:33:39;8.07;;;4.00;;
56752;SDS011;42627;42.646;23.642;2023-05-01T03:35:40;6.25;;;4.07;;
56752;SDS011;42627;42.646;23.642;2023-05-01T03:37:41;10.70;;;5.43;;
56752;SDS011;42627;42.646;23.642;2023-05-01T03:39:41;6.57;;;2.92;;
56752;SDS011;42627;42.646;23.642;2023-05-01T03:43:52;8.40;;;3.53;;
56752;SDS011;42627;42.646;23.642;2023-05-01T03:45:53;11.02;;;5.03;;
56752;SDS011;42627;42.646;23.642;2023-05-01T03:47:53;10.60;;;5.40;;
56752;SDS011;42627;42.646;23.642;2023-05-01T03:49:54;7.80;;;4.55;;
56752;SDS011;42627;42.646;23.642;2023-05-01T03:51:55;9.20;;;4.57;;
56752;SDS011;42627;42.646;23.642;2023-05-01T03:53:55;10.18;;;5.70;;
56752;SDS011;42627;42.646;23.642;2023-05-01T03:55:57;9.23;;;5.18;;
56752;SDS011;42627;42.646;23.642;2023-05-01T04:02:59;8.13;;;4.97;;
56752;SDS011;42627;42.646;23.642;2023-05-01T04:05:00;8.15;;;4.70;;
56752;SDS011;42627;42.646;23.642;2023-05-01T04:07:01;8.60;;;4.80;;
56752;SDS011;42627;42.646;23.642;2023-05-01T04:09:01;8.80;;;4.07;;
56752;SDS011;42627;42.646;23.642;2023-05-01T04:11:02;6.72;;;4.32;;
56752;SDS011;42627;42.646;23.642;2023-05-01T04:13:03;6.45;;;3.92;;
56752;SDS011;42627;42.646;23.642;2023-05-01T04:15:04;8.23;;;3.53;;
56752;SDS011;42627;42.646;23.642;2023-05-01T04:17:20;7.97;;;3.50;;
56752;SDS011;42627;42.646;23.642;2023-05-01T04:19:20;6.65;;;3.63;;
56752;SDS011;42627;42.646;23.642;2023-05-01T04:21:21;7.25;;;3.53;;
56752;SDS011;42627;42.646;23.642;2023-05-01T04:23:22;4.22;;;2.60;;
56752;SDS011;42627;42.646;23.642;2023-05-01T04:25:23;5.78;;;2.90;;
56752;SDS011;42627;42.646;23.642;2023-05-01T04:32:16;5.00;;;2.13;;
56752;SDS011;42627;42.646;23.642;2023-05-01T04:34:17;5.18;;;2.45;;
56752;SDS011;42627;42.646;23.642;2023-05-01T04:36:18;6.00;;;2.38;;
56752;SDS011;42627;42.646;23.642;2023-05-01T04:38:20;5.07;;;1.98;;
56752;SDS011;42627;42.646;23.642;2023-05-01T04:40:21;3.78;;;2.13;;
56752;SDS011;42627;42.646;23.642;2023-05-01T04:42:22;4.18;;;2.08;;
56752;SDS011;42627;42.646;23.642;2023-05-01T04:44:23;4.28;;;2.30;;
56752;SDS011;42627;42.646;23.642;2023-05-01T04:46:38;4.20;;;2.33;;
56752;SDS011;42627;42.646;23.642;2023-05-01T04:48:39;4.30;;;2.33;;
56752;SDS011;42627;42.646;23.642;2023-05-01T04:50:40;6.25;;;2.58;;
56752;SDS011;42627;42.646;23.642;2023-05-01T04:52:41;4.93;;;2.70;;
56752;SDS011;42627;42.646;23.642;2023-05-01T04:54:42;6.80;;;2.88;;
56752;SDS011;42627;42.646;23.642;2023-05-01T04:59:16;5.32;;;2.47;;
56752;SDS011;42627;42.646;23.642;2023-05-01T05:01:55;6.38;;;3.00;;
56752;SDS011;42627;42.646;23.642;2023-05-01T05:03:56;5.60;;;3.10;;
56752;SDS011;42627;42.646;23.642;2023-05-01T05:05:57;5.88;;;3.53;;
56752;SDS011;42627;42.646;23.642;2023-05-01T05:07:58;5.53;;;2.92;;
56752;SDS011;42627;42.646;23.642;2023-05-01T05:09:59;5.47;;;2.75;;
56752;SDS011;42627;42.646;23.642;2023-05-01T05:12:00;6.63;;;3.28;;
56752;SDS011;42627;42.646;23.642;2023-05-01T05:14:03;5.47;;;2.88;;
56752;SDS011;42627;42.646;23.642;2023-05-01T05:18:15;4.85;;;2.75;;
56752;SDS011;42627;42.646;23.642;2023-05-01T05:20:15;5.28;;;3.30;;
56752;SDS011;42627;42.646;23.642;2023-05-01T05:22:16;6.47;;;3.00;;
56752;SDS011;42627;42.646;23.642;2023-05-01T05:24:18;6.15;;;3.60;;
56752;SDS011;42627;42.646;23.642;2023-05-01T05:29:12;8.68;;;4.97;;
56752;SDS011;42627;42.646;23.642;2023-05-01T05:31:36;6.95;;;3.85;;
56752;SDS011;42627;42.646;23.642;2023-05-01T05:33:37;6.50;;;4.18;;
56752;SDS011;42627;42.646;23.642;2023-05-01T05:35:37;7.38;;;4.80;;
56752;SDS011;42627;42.646;23.642;2023-05-01T05:37:38;10.52;;;5.53;;
56752;SDS011;42627;42.646;23.642;2023-05-01T05:39:39;8.00;;;5.03;;
56752;SDS011;42627;42.646;23.642;2023-05-01T05:41:39;6.60;;;4.57;;
56752;SDS011;42627;42.646;23.642;2023-05-01T05:43:40;11.68;;;4.78;;
56752;SDS011;42627;42.646;23.642;2023-05-01T05:45:57;7.13;;;4.32;;
56752;SDS011;42627;42.646;23.642;2023-05-01T05:47:58;10.35;;;5.72;;
56752;SDS011;42627;42.646;23.642;2023-05-01T05:49:58;8.55;;;5.20;;
56752;SDS011;42627;42.646;23.642;2023-05-01T05:51:59;10.73;;;5.20;;
56752;SDS011;42627;42.646;23.642;2023-05-01T05:54:00;9.30;;;5.57;;
56752;SDS011;42627;42.646;23.642;2023-05-01T06:01:09;8.55;;;5.00;;
56752;SDS011;42627;42.646;23.642;2023-05-01T06:03:10;11.48;;;5.63;;
56752;SDS011;42627;42.646;23.642;2023-05-01T06:05:11;9.82;;;5.30;;
56752;SDS011;42627;42.646;23.642;2023-05-01T06:07:12;10.18;;;5.43;;
56752;SDS011;42627;42.646;23.642;2023-05-01T06:09:13;7.40;;;5.22;;
56752;SDS011;42627;42.646;23.642;2023-05-01T06:11:16;9.82;;;5.63;;
56752;SDS011;42627;42.646;23.642;2023-05-01T06:13:16;8.95;;;5.05;;
56752;SDS011;42627;42.646;23.642;2023-05-01T06:15:17;8.93;;;5.32;;
56752;SDS011;42627;42.646;23.642;2023-05-01T06:17:18;8.70;;;5.13;;
56752;SDS011;42627;42.646;23.642;2023-05-01T06:19:18;9.40;;;5.93;;
56752;SDS011;42627;42.646;23.642;2023-05-01T06:21:19;8.52;;;5.15;;
56752;SDS011;42627;42.646;23.642;2023-05-01T06:23:20;10.38;;;5.90;;
56752;SDS011;42627;42.646;23.642;2023-05-01T06:30:40;7.18;;;4.97;;
56752;SDS011;42627;42.646;23.642;2023-05-01T06:32:40;7.97;;;4.82;;
56752;SDS011;42627;42.646;23.642;2023-05-01T06:34:44;8.98;;;4.72;;
56752;SDS011;42627;42.646;23.642;2023-05-01T06:36:44;8.43;;;4.57;;
56752;SDS011;42627;42.646;23.642;2023-05-01T06:38:45;8.77;;;4.57;;
56752;SDS011;42627;42.646;23.642;2023-05-01T06:40:48;9.98;;;5.15;;
56752;SDS011;42627;42.646;23.642;2023-05-01T06:42:48;7.82;;;4.85;;
56752;SDS011;42627;42.646;23.642;2023-05-01T06:45:01;9.15;;;5.47;;
56752;SDS011;42627;42.646;23.642;2023-05-01T06:47:02;7.15;;;4.75;;
56752;SDS011;42627;42.646;23.642;2023-05-01T06:49:03;7.45;;;4.95;;
56752;SDS011;42627;42.646;23.642;2023-05-01T06:51:04;10.00;;;5.15;;
56752;SDS011;42627;42.646;23.642;2023-05-01T06:53:05;10.27;;;5.28;;
56752;SDS011;42627;42.646;23.642;2023-05-01T06:57:56;7.88;;;4.95;;
56752;SDS011;42627;42.646;23.642;2023-05-01T07:00:21;11.32;;;5.60;;
56752;SDS011;42627;42.646;23.642;2023-05-01T07:02:21;9.52;;;5.15;;
56752;SDS011;42627;42.646;23.642;2023-05-01T07:04:22;9.73;;;5.50;;
56752;SDS011;42627;42.646;23.642;2023-05-01T07:06:23;9.30;;;6.35;;
56752;SDS011;42627;42.646;23.642;2023-05-01T07:08:24;9.75;;;5.10;;
56752;SDS011;42627;42.646;23.642;2023-05-01T07:10:27;9.13;;;5.70;;
56752;SDS011;42627;42.646;23.642;2023-05-01T07:12:29;9.43;;;5.60;;
56752;SDS011;42627;42.646;23.642;2023-05-01T07:14:30;11.05;;;5.93;;
56752;SDS011;42627;42.646;23.642;2023-05-01T07:16:32;7.47;;;4.72;;
56752;SDS011;42627;42.646;23.642;2023-05-01T07:18:33;8.40;;;5.57;;
56752;SDS011;42627;42.646;23.642;2023-05-01T07:20:34;9.32;;;5.07;;
56752;SDS011;42627;42.646;23.642;2023-05-01T07:22:35;7.32;;;4.97;;
56752;SDS011;42627;42.646;23.642;2023-05-01T07:24:36;8.88;;;5.25;;
56752;SDS011;42627;42.646;23.642;2023-05-01T07:26:37;8.82;;;5.38;;
56752;SDS011;42627;42.646;23.642;2023-05-01T07:28:44;7.80;;;4.68;;
56752;SDS011;42627;42.646;23.642;2023-05-01T07:35:44;7.40;;;4.40;;
56752;SDS011;42627;42.646;23.642;2023-05-01T07:37:45;8.60;;;4.95;;
56752;SDS011;42627;42.646;23.642;2023-05-01T07:39:46;9.80;;;4.80;;
56752;SDS011;42627;42.646;23.642;2023-05-01T07:41:47;9.98;;;4.82;;
56752;SDS011;42627;42.646;23.642;2023-05-01T07:43:48;8.68;;;4.75;;
56752;SDS011;42627;42.646;23.642;2023-05-01T07:45:56;10.55;;;5.15;;
56752;SDS011;42627;42.646;23.642;2023-05-01T07:50:15;8.02;;;4.35;;
56752;SDS011;42627;42.646;23.642;2023-05-01T07:52:16;6.47;;;4.30;;
56752;SDS011;42627;42.646;23.642;2023-05-01T07:54:17;7.35;;;4.65;;
56752;SDS011;42627;42.646;23.642;2023-05-01T07:56:20;7.47;;;4.90;;
56752;SDS011;42627;42.646;23.642;2023-05-01T08:01:02;7.03;;;4.38;;
56752;SDS011;42627;42.646;23.642;2023-05-01T08:05:38;8.02;;;4.65;;
56752;SDS011;42627;42.646;23.642;2023-05-01T08:07:39;7.63;;;4.13;;
56752;SDS011;42627;42.646;23.642;2023-05-01T08:09:39;10.98;;;4.10;;
56752;SDS011;42627;42.646;23.642;2023-05-01T08:11:40;9.18;;;4.25;;
56752;SDS011;42627;42.646;23.642;2023-05-01T08:13:41;8.02;;;4.40;;
56752;SDS011;42627;42.646;23.642;2023-05-01T08:15:43;6.10;;;3.92;;
56752;SDS011;42627;42.646;23.642;2023-05-01T08:19:55;6.18;;;4.30;;
56752;SDS011;42627;42.646;23.642;2023-05-01T08:21:56;6.20;;;4.07;;
56752;SDS011;42627;42.646;23.642;2023-05-01T08:23:57;6.15;;;3.58;;
56752;SDS011;42627;42.646;23.642;2023-05-01T08:25:58;6.20;;;3.72;;
56752;SDS011;42627;42.646;23.642;2023-05-01T08:33:19;6.03;;;3.80;;
56752;SDS011;42627;42.646;23.642;2023-05-01T08:35:20;7.03;;;4.13;;
56752;SDS011;42627;42.646;23.642;2023-05-01T08:37:21;5.80;;;3.60;;
56752;SDS011;42627;42.646;23.642;2023-05-01T08:39:22;6.78;;;3.53;;
56752;SDS011;42627;42.646;23.642;2023-05-01T08:41:23;5.75;;;3.40;;
56752;SDS011;42627;42.646;23.642;2023-05-01T08:43:24;5.15;;;3.30;;
56752;SDS011;42627;42.646;23.642;2023-05-01T08:45:27;5.07;;;3.10;;
56752;SDS011;42627;42.646;23.642;2023-05-01T08:47:30;5.25;;;3.22;;
56752;SDS011;42627;42.646;23.642;2023-05-01T08:49:31;3.67;;;2.47;;
56752;SDS011;42627;42.646;23.642;2023-05-01T08:51:33;6.95;;;2.97;;
56752;SDS011;42627;42.646;23.642;2023-05-01T08:53:36;5.00;;;2.53;;
56752;SDS011;42627;42.646;23.642;2023-05-01T08:55:38;3.95;;;2.20;;
56752;SDS011;42627;42.646;23.642;2023-05-01T08:57:43;5.88;;;2.55;;
56752;SDS011;42627;42.646;23.642;2023-05-01T08:59:44;4.65;;;2.70;;
56752;SDS011;42627;42.646;23.642;2023-05-01T09:01:46;5.25;;;2.70;;
56752;SDS011;42627;42.646;23.642;2023-05-01T09:03:48;4.00;;;2.67;;
56752;SDS011;42627;42.646;23.642;2023-05-01T09:05:49;4.55;;;2.50;;
56752;SDS011;42627;42.646;23.642;2023-05-01T09:07:51;4.20;;;2.65;;
56752;SDS011;42627;42.646;23.642;2023-05-01T09:09:52;2.67;;;1.58;;
56752;SDS011;42627;42.646;23.642;2023-05-01T09:11:58;2.75;;;1.60;;
56752;SDS011;42627;42.646;23.642;2023-05-01T09:14:02;3.83;;;1.98;;
56752;SDS011;42627;42.646;23.642;2023-05-01T09:16:04;2.90;;;1.90;;
56752;SDS011;42627;42.646;23.642;2023-05-01T09:18:18;8.32;;;2.03;;
56752;SDS011;42627;42.646;23.642;2023-05-01T09:20:20;3.38;;;1.90;;
56752;SDS011;42627;42.646;23.642;2023-05-01T09:22:24;3.15;;;1.92;;
56752;SDS011;42627;42.646;23.642;2023-05-01T09:24:28;6.60;;;2.17;;
56752;SDS011;42627;42.646;23.642;2023-05-01T09:26:29;3.38;;;1.70;;
56752;SDS011;42627;42.646;23.642;2023-05-01T09:33:50;5.32;;;2.00;;
56752;SDS011;42627;42.646;23.642;2023-05-01T09:35:55;3.67;;;1.98;;
56752;SDS011;42627;42.646;23.642;2023-05-01T09:38:00;2.75;;;1.98;;
56752;SDS011;42627;42.646;23.642;2023-05-01T09:40:11;3.42;;;1.80;;
56752;SDS011;42627;42.646;23.642;2023-05-01T09:42:13;5.07;;;1.67;;
56752;SDS011;42627;42.646;23.642;2023-05-01T09:44:25;3.92;;;1.80;;
56752;SDS011;42627;42.646;23.642;2023-05-01T09:46:26;2.45;;;1.63;;
56752;SDS011;42627;42.646;23.642;2023-05-01T09:50:38;3.45;;;1.50;;
56752;SDS011;42627;42.646;23.642;2023-05-01T09:52:48;5.88;;;2.25;;
56752;SDS011;42627;42.646;23.642;2023-05-01T09:55:09;4.57;;;1.60;;
56752;SDS011;42627;42.646;23.642;2023-05-01T09:57:11;1.95;;;1.20;;
56752;SDS011;42627;42.646;23.642;2023-05-01T09:59:16;2.30;;;1.58;;
56752;SDS011;42627;42.646;23.642;2023-05-01T10:01:36;2.55;;;1.55;;
56752;SDS011;42627;42.646;23.642;2023-05-01T10:03:37;4.32;;;1.60;;
56752;SDS011;42627;42.646;23.642;2023-05-01T10:05:41;2.67;;;1.50;;
56752;SDS011;42627;42.646;23.642;2023-05-01T10:07:53;2.33;;;1.48;;
56752;SDS011;42627;42.646;23.642;2023-05-01T10:12:27;2.47;;;1.33;;
56752;SDS011;42627;42.646;23.642;2023-05-01T10:17:54;2.90;;;1.58;;
56752;SDS011;42627;42.646;23.642;2023-05-01T10:20:00;3.38;;;1.73;;
56752;SDS011;42627;42.646;23.642;2023-05-01T10:22:18;2.80;;;1.65;;
56752;SDS011;42627;42.646;23.642;2023-05-01T10:24:31;3.83;;;1.85;;
56752;SDS011;42627;42.646;23.642;2023-05-01T10:26:44;3.40;;;1.90;;
56752;SDS011;42627;42.646;23.642;2023-05-01T10:29:19;2.88;;;1.35;;
56752;SDS011;42627;42.646;23.642;2023-05-01T10:31:20;2.20;;;1.35;;
56752;SDS011;42627;42.646;23.642;2023-05-01T10:33:21;2.15;;;1.05;;
56752;SDS011;42627;42.646;23.642;2023-05-01T10:35:33;2.30;;;1.02;;
56752;SDS011;42627;42.646;23.642;2023-05-01T10:37:45;1.75;;;1.10;;
56752;SDS011;42627;42.646;23.642;2023-05-01T10:39:47;1.70;;;1.05;;
56752;SDS011;42627;42.646;23.642;2023-05-01T10:55:32;2.45;;;1.10;;
56752;SDS011;42627;42.646;23.642;2023-05-01T10:57:41;2.47;;;1.20;;
56752;SDS011;42627;42.646;23.642;2023-05-01T11:04:00;3.42;;;1.05;;
56752;SDS011;42627;42.646;23.642;2023-05-01T11:10:32;1.77;;;0.80;;
56752;SDS011;42627;42.646;23.642;2023-05-01T11:12:46;1.40;;;0.80;;
56752;SDS011;42627;42.646;23.642;2023-05-01T11:16:53;1.88;;;1.00;;
56752;SDS011;42627;42.646;23.642;2023-05-01T11:18:54;2.08;;;1.02;;
56752;SDS011;42627;42.646;23.642;2023-05-01T11:20:54;1.55;;;1.13;;
56752;SDS011;42627;42.646;23.642;2023-05-01T11:22:55;1.95;;;1.10;;
56752;SDS011;42627;42.646;23.642;2023-05-01T11:24:56;3.67;;;0.95;;
56752;SDS011;42627;42.646;23.642;2023-05-01T11:26:58;2.45;;;0.98;;
56752;SDS011;42627;42.646;23.642;2023-05-01T11:28:59;1.60;;;0.88;;
56752;SDS011;42627;42.646;23.642;2023-05-01T11:31:01;4.60;;;0.90;;
56752;SDS011;42627;42.646;23.642;2023-05-01T11:33:02;4.70;;;1.08;;
56752;SDS011;42627;42.646;23.642;2023-05-01T11:35:04;2.63;;;0.90;;
56752;SDS011;42627;42.646;23.642;2023-05-01T11:37:05;2.33;;;1.13;;
56752;SDS011;42627;42.646;23.642;2023-05-01T11:39:06;2.13;;;0.90;;
56752;SDS011;42627;42.646;23.642;2023-05-01T11:41:14;1.33;;;0.90;;
56752;SDS011;42627;42.646;23.642;2023-05-01T11:43:22;1.77;;;0.85;;
56752;SDS011;42627;42.646;23.642;2023-05-01T11:45:23;2.58;;;0.98;;
56752;SDS011;42627;42.646;23.642;2023-05-01T11:47:24;2.55;;;1.15;;
56752;SDS011;42627;42.646;23.642;2023-05-01T11:49:28;4.03;;;1.40;;
56752;SDS011;42627;42.646;23.642;2023-05-01T11:51:29;2.00;;;1.00;;
56752;SDS011;42627;42.646;23.642;2023-05-01T11:53:31;0.60;;;0.60;;
56752;SDS011;42627;42.646;23.642;2023-05-01T11:55:32;1.25;;;0.65;;
56752;SDS011;42627;42.646;23.642;2023-05-01T11:57:49;2.67;;;0.88;;
56752;SDS011;42627;42.646;23.642;2023-05-01T11:59:50;1.55;;;0.80;;
56752;SDS011;42627;42.646;23.642;2023-05-01T12:01:52;0.85;;;0.60;;
56752;SDS011;42627;42.646;23.642;2023-05-01T12:03:53;0.85;;;0.50;;
56752;SDS011;42627;42.646;23.642;2023-05-01T12:05:54;1.05;;;0.70;;
56752;SDS011;42627;42.646;23.642;2023-05-01T12:10:18;1.63;;;0.70;;
56752;SDS011;42627;42.646;23.642;2023-05-01T12:12:19;1.45;;;0.70;;
56752;SDS011;42627;42.646;23.642;2023-05-01T12:14:21;1.63;;;0.90;;
56752;SDS011;42627;42.646;23.642;2023-05-01T12:16:23;3.97;;;1.27;;
56752;SDS011;42627;42.646;23.642;2023-05-01T12:18:24;2.10;;;0.95;;
56752;SDS011;42627;42.646;23.642;2023-05-01T12:20:44;3.75;;;1.42;;
56752;SDS011;42627;42.646;23.642;2023-05-01T12:22:49;1.38;;;1.00;;
56752;SDS011;42627;42.646;23.642;2023-05-01T12:24:50;2.13;;;1.10;;
56752;SDS011;42627;42.646;23.642;2023-05-01T12:26:58;2.22;;;1.13;;
56752;SDS011;42627;42.646;23.642;2023-05-01T12:29:00;1.92;;;1.10;;
56752;SDS011;42627;42.646;23.642;2023-05-01T12:31:01;5.65;;;1.00;;
56752;SDS011;42627;42.646;23.642;2023-05-01T12:33:09;2.28;;;1.30;;
56752;SDS011;42627;42.646;23.642;2023-05-01T12:35:13;3.63;;;1.10;;
56752;SDS011;42627;42.646;23.642;2023-05-01T12:37:14;1.63;;;1.00;;
56752;SDS011;42627;42.646;23.642;2023-05-01T12:39:15;2.28;;;1.27;;
56752;SDS011;42627;42.646;23.642;2023-05-01T12:41:16;5.38;;;2.00;;
56752;SDS011;42627;42.646;23.642;2023-05-01T12:43:21;2.00;;;1.02;;
56752;SDS011;42627;42.646;23.642;2023-05-01T12:45:22;1.30;;;1.00;;
56752;SDS011;42627;42.646;23.642;2023-05-01T12:47:23;2.30;;;1.30;;
56752;SDS011;42627;42.646;23.642;2023-05-01T12:49:26;1.77;;;1.17;;
56752;SDS011;42627;42.646;23.642;2023-05-01T12:51:27;2.22;;;1.23;;
56752;SDS011;42627;42.646;23.642;2023-05-01T12:53:28;3.40;;;1.42;;
56752;SDS011;42627;42.646;23.642;2023-05-01T12:55:29;4.07;;;1.33;;
56752;SDS011;42627;42.646;23.642;2023-05-01T12:57:33;2.60;;;1.40;;
56752;SDS011;42627;42.646;23.642;2023-05-01T12:59:34;2.13;;;0.98;;
56752;SDS011;42627;42.646;23.642;2023-05-01T13:01:36;2.00;;;1.10;;
56752;SDS011;42627;42.646;23.642;2023-05-01T13:03:41;2.13;;;1.30;;
56752;SDS011;42627;42.646;23.642;2023-05-01T13:06:16;2.47;;;1.27;;
56752;SDS011;42627;42.646;23.642;2023-05-01T13:08:10;1.33;;;0.90;;
56752;SDS011;42627;42.646;23.642;2023-05-01T13:10:11;1.70;;;1.00;;
56752;SDS011;42627;42.646;23.642;2023-05-01T13:12:13;3.00;;;1.20;;
56752;SDS011;42627;42.646;23.642;2023-05-01T13:14:31;2.35;;;1.17;;
56752;SDS011;42627;42.646;23.642;2023-05-01T13:16:43;5.50;;;1.55;;
56752;SDS011;42627;42.646;23.642;2023-05-01T13:19:08;2.20;;;1.15;;
56752;SDS011;42627;42.646;23.642;2023-05-01T13:21:31;2.40;;;1.20;;
56752;SDS011;42627;42.646;23.642;2023-05-01T13:23:52;2.78;;;0.95;;
56752;SDS011;42627;42.646;23.642;2023-05-01T13:25:59;1.63;;;0.85;;
56752;SDS011;42627;42.646;23.642;2023-05-01T13:28:17;3.75;;;0.98;;
56752;SDS011;42627;42.646;23.642;2023-05-01T13:30:56;1.85;;;1.00;;
56752;SDS011;42627;42.646;23.642;2023-05-01T13:33:17;1.88;;;1.08;;
56752;SDS011;42627;42.646;23.642;2023-05-01T13:35:49;1.83;;;1.15;;
56752;SDS011;42627;42.646;23.642;2023-05-01T13:37:42;1.85;;;0.90;;
56752;SDS011;42627;42.646;23.642;2023-05-01T13:42:25;1.58;;;1.13;;
56752;SDS011;42627;42.646;23.642;2023-05-01T13:47:06;1.52;;;0.80;;
56752;SDS011;42627;42.646;23.642;2023-05-01T13:49:14;1.33;;;0.75;;
56752;SDS011;42627;42.646;23.642;2023-05-01T13:51:25;1.00;;;0.77;;
56752;SDS011;42627;42.646;23.642;2023-05-01T13:53:26;1.50;;;0.80;;
56752;SDS011;42627;42.646;23.642;2023-05-01T13:55:47;1.17;;;0.75;;
56752;SDS011;42627;42.646;23.642;2023-05-01T13:58:15;1.90;;;0.98;;
56752;SDS011;42627;42.646;23.642;2023-05-01T14:00:43;1.35;;;0.80;;
56752;SDS011;42627;42.646;23.642;2023-05-01T14:03:07;1.30;;;0.80;;
56752;SDS011;42627;42.646;23.642;2023-05-01T14:05:30;1.17;;;0.63;;
56752;SDS011;42627;42.646;23.642;2023-05-01T14:10:02;1.40;;;0.70;;
56752;SDS011;42627;42.646;23.642;2023-05-01T14:12:27;1.38;;;0.60;;
56752;SDS011;42627;42.646;23.642;2023-05-01T14:17:17;2.13;;;0.70;;
56752;SDS011;42627;42.646;23.642;2023-05-01T14:19:20;4.13;;;1.20;;
56752;SDS011;42627;42.646;23.642;2023-05-01T14:21:46;0.52;;;0.40;;
56752;SDS011;42627;42.646;23.642;2023-05-01T14:23:57;1.13;;;0.60;;
56752;SDS011;42627;42.646;23.642;2023-05-01T14:28:56;1.05;;;0.55;;
56752;SDS011;42627;42.646;23.642;2023-05-01T14:31:26;1.10;;;0.50;;
56752;SDS011;42627;42.646;23.642;2023-05-01T14:34:12;1.10;;;0.60;;
56752;SDS011;42627;42.646;23.642;2023-05-01T14:38:38;1.58;;;0.55;;
56752;SDS011;42627;42.646;23.642;2023-05-01T14:46:15;2.33;;;0.60;;
56752;SDS011;42627;42.646;23.642;2023-05-01T14:51:29;1.98;;;0.60;;
56752;SDS011;42627;42.646;23.642;2023-05-01T14:56:27;1.25;;;0.57;;
56752;SDS011;42627;42.646;23.642;2023-05-01T14:58:36;0.57;;;0.40;;
56752;SDS011;42627;42.646;23.642;2023-05-01T15:01:00;1.48;;;0.60;;
56752;SDS011;42627;42.646;23.642;2023-05-01T15:08:56;2.40;;;0.90;;
56752;SDS011;42627;42.646;23.642;2023-05-01T15:11:01;0.73;;;0.50;;
56752;SDS011;42627;42.646;23.642;2023-05-01T15:15:59;1.02;;;0.75;;
56752;SDS011;42627;42.646;23.642;2023-05-01T15:27:08;1.45;;;0.85;;
56752;SDS011;42627;42.646;23.642;2023-05-01T15:29:28;1.27;;;0.80;;